createdAt,value
2018-04-28T00:02:21.233Z,76.50
2018-04-28T00:04:48.678Z,75.90
2018-04-28T00:07:16.834Z,75.90
2018-04-28T00:09:44.262Z,76.20
2018-04-28T00:12:11.699Z,76.00
2018-04-28T00:14:39.122Z,76.70
2018-04-28T00:17:06.554Z,76.70
2018-04-28T00:19:35.379Z,76.80
2018-04-28T00:22:11.650Z,76.60
2018-04-28T00:24:39.107Z,75.80
2018-04-28T00:27:09.493Z,76.80
2018-04-28T00:29:36.975Z,77.00
2018-04-28T00:32:08.634Z,76.70
2018-04-28T00:34:41.860Z,76.40
2018-04-28T00:37:10.229Z,76.80
2018-04-28T00:42:45.924Z,76.90
2018-04-28T00:45:19.315Z,79.40
2018-04-28T00:47:50.371Z,77.60
2018-04-28T00:50:26.930Z,78.30
2018-04-28T00:52:54.447Z,78.20
2018-04-28T00:58:15.710Z,77.60
2018-04-28T01:00:47.339Z,77.00
2018-04-28T01:03:14.831Z,79.10
2018-04-28T01:05:48.092Z,79.50
2018-04-28T01:08:30.409Z,79.10
2018-04-28T01:11:01.323Z,78.80
2018-04-28T01:13:43.654Z,78.00
2018-04-28T01:16:12.942Z,79.30
2018-04-28T01:18:41.863Z,78.30
2018-04-28T01:21:09.288Z,79.10
2018-04-28T01:23:48.243Z,79.60
2018-04-28T01:26:23.486Z,79.70
2018-04-28T01:28:52.828Z,80.20
2018-04-28T01:31:24.922Z,80.40
2018-04-28T01:37:18.849Z,81.20
2018-04-28T01:39:47.220Z,81.40
2018-04-28T01:42:50.245Z,81.20
2018-04-28T01:45:28.280Z,80.60
2018-04-28T01:48:22.534Z,80.50
2018-04-28T01:50:54.605Z,80.20
2018-04-28T01:53:23.119Z,79.40
2018-04-28T01:56:00.537Z,79.40
2018-04-28T01:58:28.898Z,79.60
2018-04-28T02:01:00.296Z,79.80
2018-04-28T02:03:51.891Z,80.10
2018-04-28T02:06:26.306Z,79.70
2018-04-28T02:09:04.926Z,78.40
2018-04-28T02:11:39.898Z,79.60
2018-04-28T02:14:15.058Z,79.40
2018-04-28T02:16:42.524Z,79.20
2018-04-28T02:19:29.617Z,79.60
2018-04-28T02:22:09.676Z,79.40
2018-04-28T02:24:59.867Z,79.40
2018-04-28T02:27:43.956Z,79.50
2018-04-28T02:30:11.462Z,80.10
2018-04-28T02:32:46.842Z,80.90
2018-04-28T02:35:16.994Z,80.90
2018-04-28T02:37:56.894Z,80.80
2018-04-28T02:41:00.934Z,80.10
2018-04-28T02:43:45.951Z,81.00
2018-04-28T02:46:14.172Z,81.00
2018-04-28T02:48:50.124Z,80.90
2018-04-28T02:51:28.147Z,80.50
2018-04-28T02:54:30.092Z,80.20
2018-04-28T02:57:08.855Z,80.00
2018-04-28T02:59:40.818Z,80.40
2018-04-28T03:02:10.090Z,80.80
2018-04-28T03:04:39.410Z,82.20
2018-04-28T03:10:44.019Z,80.10
2018-04-28T03:13:19.378Z,82.00
2018-04-28T03:15:46.832Z,82.50
2018-04-28T03:18:14.250Z,82.20
2018-04-28T03:20:46.306Z,82.50
2018-04-28T03:23:30.232Z,81.50
2018-04-28T03:25:57.668Z,82.00
2018-04-28T03:28:42.039Z,82.50
2018-04-28T03:34:15.558Z,81.90
2018-04-28T03:36:48.662Z,80.70
2018-04-28T03:39:17.469Z,80.10
2018-04-28T03:50:32.737Z,77.60
2018-04-28T03:53:06.951Z,77.70
2018-04-28T03:55:36.253Z,76.60
2018-04-28T03:58:15.502Z,76.20
2018-04-28T04:00:55.159Z,75.70
2018-04-28T04:03:22.699Z,75.10
2018-04-28T04:05:53.765Z,75.80
2018-04-28T04:08:38.398Z,75.10
2018-04-28T04:11:23.989Z,75.10
2018-04-28T04:14:12.339Z,75.10
2018-04-28T04:16:50.526Z,74.90
2018-04-28T04:19:21.596Z,75.20
2018-04-28T04:21:52.866Z,74.60
2018-04-28T04:24:21.081Z,74.40
2018-04-28T04:26:56.183Z,74.20
2018-04-28T04:29:36.382Z,73.80
2018-04-28T04:32:08.455Z,73.70
2018-04-28T04:34:44.799Z,73.80
2018-04-28T04:37:12.914Z,74.20
2018-04-28T04:39:43.990Z,73.80
2018-04-28T04:42:28.792Z,75.30
2018-04-28T04:45:17.905Z,75.30
2018-04-28T04:47:53.934Z,75.60
2018-04-28T04:50:33.344Z,75.50
2018-04-28T04:56:40.730Z,75.30
2018-04-28T04:59:32.671Z,76.20
2018-04-28T05:02:17.422Z,75.40
2018-04-28T05:04:50.576Z,75.40
2018-04-28T05:07:28.864Z,75.30
2018-04-28T05:09:58.065Z,75.80
2018-04-28T05:12:45.059Z,75.40
2018-04-28T05:15:20.506Z,75.30
2018-04-28T05:17:48.708Z,74.60
2018-04-28T05:20:28.020Z,74.10
2018-04-28T05:23:07.504Z,73.50
2018-04-28T05:25:57.845Z,71.90
2018-04-28T05:31:53.581Z,69.10
2018-04-28T05:34:33.813Z,68.90
2018-04-28T05:40:32.916Z,67.40
2018-04-28T05:46:11.349Z,67.40
2018-04-28T05:49:03.590Z,67.90
2018-04-28T05:54:52.874Z,66.10
2018-04-28T05:57:32.186Z,66.60
2018-04-28T06:00:16.622Z,66.30
2018-04-28T06:02:50.912Z,64.70
2018-04-28T06:05:51.853Z,64.70
2018-04-28T06:08:26.145Z,64.70
2018-04-28T06:11:16.465Z,63.30
2018-04-28T06:13:49.912Z,62.60
2018-04-28T06:16:45.525Z,60.90
2018-04-28T06:19:19.958Z,61.80
2018-04-28T06:21:47.427Z,60.90
2018-04-28T06:24:14.856Z,60.70
2018-04-28T06:26:42.318Z,60.90
2018-04-28T06:29:09.742Z,59.40
2018-04-28T06:31:37.977Z,59.70
2018-04-28T06:34:05.398Z,59.70
2018-04-28T06:36:32.892Z,58.80
2018-04-28T06:39:00.425Z,58.50
2018-04-28T06:41:27.919Z,58.60
2018-04-28T06:43:56.178Z,59.10
2018-04-28T06:46:23.722Z,59.30
2018-04-28T06:48:51.152Z,62.10
2018-04-28T06:51:18.681Z,59.90
2018-04-28T06:53:47.135Z,60.20
2018-04-28T06:56:14.553Z,59.90
2018-04-28T06:58:42.014Z,59.80
2018-04-28T07:01:09.489Z,59.20
2018-04-28T07:03:36.927Z,59.60
2018-04-28T07:06:04.368Z,59.60
2018-04-28T07:08:32.576Z,59.80
2018-04-28T07:11:00.633Z,59.70
2018-04-28T07:13:28.133Z,59.30
2018-04-28T07:15:55.778Z,58.50
2018-04-28T07:18:23.211Z,59.70
2018-04-28T07:20:50.639Z,59.90
2018-04-28T07:23:18.832Z,59.30
2018-04-28T07:25:47.030Z,56.60
2018-04-28T07:28:14.526Z,56.60
2018-04-28T07:30:41.958Z,57.40
2018-04-28T07:33:09.392Z,57.40
2018-04-28T07:35:37.797Z,57.70
2018-04-28T07:38:06.701Z,56.60
2018-04-28T07:40:34.136Z,56.30
2018-04-28T07:43:01.591Z,55.70
2018-04-28T07:45:29.022Z,55.60
2018-04-28T07:47:58.370Z,54.60
2018-04-28T07:50:25.831Z,54.70
2018-04-28T07:52:53.275Z,55.70
2018-04-28T07:55:20.697Z,53.50
2018-04-28T07:57:48.155Z,54.00
2018-04-28T08:00:15.656Z,50.40
2018-04-28T08:02:43.975Z,48.70
2018-04-28T08:05:12.355Z,49.00
2018-04-28T08:07:44.007Z,48.80
2018-04-28T08:10:12.226Z,47.90
2018-04-28T08:12:39.700Z,47.80
2018-04-28T08:15:07.311Z,46.80
2018-04-28T08:17:34.682Z,46.30
2018-04-28T08:20:02.123Z,46.10
2018-04-28T08:22:29.611Z,46.90
2018-04-28T08:24:57.077Z,43.50
2018-04-28T08:27:24.598Z,42.60
2018-04-28T08:29:52.813Z,42.80
2018-04-28T08:32:20.238Z,42.80
2018-04-28T08:34:48.469Z,40.10
2018-04-28T08:37:15.932Z,40.10
2018-04-28T08:39:43.318Z,41.40
2018-04-28T08:42:11.519Z,44.80
2018-04-28T08:44:39.243Z,44.90
2018-04-28T08:47:06.858Z,42.10
2018-04-28T08:49:34.312Z,43.00
2018-04-28T08:52:02.196Z,43.90
2018-04-28T08:54:29.638Z,44.60
2018-04-28T08:56:57.106Z,43.00
2018-04-28T08:59:36.469Z,42.10
2018-04-28T09:02:03.962Z,39.80
2018-04-28T09:04:32.271Z,42.20
2018-04-28T09:06:59.718Z,42.10
2018-04-28T09:09:27.197Z,41.00
2018-04-28T09:11:54.661Z,40.20
2018-04-28T09:14:22.164Z,38.60
2018-04-28T09:16:50.353Z,39.90
2018-04-28T09:19:18.662Z,42.80
2018-04-28T09:21:46.098Z,42.70
2018-04-28T09:24:13.601Z,44.60
2018-04-28T09:26:41.084Z,43.00
2018-04-28T09:29:08.555Z,45.10
2018-04-28T09:31:37.005Z,45.10
2018-04-28T09:34:04.468Z,45.20
2018-04-28T09:36:32.001Z,44.50
2018-04-28T09:38:59.444Z,43.60
2018-04-28T09:41:27.911Z,43.00
2018-04-28T09:43:55.347Z,44.30
2018-04-28T09:46:24.538Z,44.50
2018-04-28T09:48:51.948Z,44.40
2018-04-28T09:51:19.440Z,43.30
2018-04-28T09:53:46.857Z,43.00
2018-04-28T09:56:14.358Z,43.70
2018-04-28T09:58:41.807Z,43.20
2018-04-28T10:01:09.258Z,43.10
2018-04-28T10:03:36.723Z,43.40
2018-04-28T10:06:05.271Z,45.40
2018-04-28T10:08:32.793Z,44.80
2018-04-28T10:11:01.026Z,44.60
2018-04-28T10:13:28.479Z,44.50
2018-04-28T10:15:56.144Z,45.10
2018-04-28T10:18:23.566Z,44.50
2018-04-28T10:20:51.023Z,45.20
2018-04-28T10:23:18.471Z,44.80
2018-04-28T10:25:46.667Z,47.90
2018-04-28T10:28:14.420Z,47.70
2018-04-28T10:30:41.965Z,47.80
2018-04-28T10:33:10.226Z,47.20
2018-04-28T10:35:37.696Z,47.20
2018-04-28T10:38:06.262Z,45.30
2018-04-28T10:40:33.717Z,45.20
2018-04-28T10:43:01.165Z,42.30
2018-04-28T10:45:28.610Z,43.70
2018-04-28T10:47:56.159Z,45.00
2018-04-28T10:50:23.584Z,44.30
2018-04-28T10:52:51.078Z,47.40
2018-04-28T10:55:18.623Z,47.00
2018-04-28T10:57:46.115Z,47.80
2018-04-28T11:00:13.550Z,48.50
2018-04-28T11:02:41.003Z,48.50
2018-04-28T11:05:08.582Z,48.20
2018-04-28T11:07:36.022Z,46.60
2018-04-28T11:10:03.444Z,46.50
2018-04-28T11:12:31.640Z,42.50
2018-04-28T11:14:59.108Z,42.50
2018-04-28T11:17:26.562Z,41.30
2018-04-28T11:19:54.072Z,42.30
2018-04-28T11:22:21.489Z,43.70
2018-04-28T11:24:48.959Z,42.10
2018-04-28T11:27:16.463Z,43.50
2018-04-28T11:29:44.933Z,46.00
2018-04-28T11:32:12.375Z,46.00
2018-04-28T11:34:39.901Z,47.50
2018-04-28T11:37:07.489Z,50.80
2018-04-28T11:39:34.936Z,51.40
2018-04-28T11:42:02.395Z,51.50
2018-04-28T11:44:29.835Z,51.70
2018-04-28T11:46:57.306Z,51.00
2018-04-28T11:49:26.379Z,51.30
2018-04-28T11:51:53.811Z,51.70
2018-04-28T11:54:21.514Z,52.20
2018-04-28T11:56:50.111Z,51.70
2018-04-28T11:59:17.541Z,52.50
2018-04-28T12:01:45.174Z,53.50
2018-04-28T12:04:13.367Z,51.90
2018-04-28T12:06:40.799Z,51.90
2018-04-28T12:09:08.311Z,52.60
2018-04-28T12:11:35.749Z,52.50
2018-04-28T12:14:03.272Z,53.30
2018-04-28T12:16:30.701Z,53.10
2018-04-28T12:18:58.354Z,54.70
2018-04-28T12:21:25.913Z,55.10
2018-04-28T12:23:53.353Z,53.60
2018-04-28T12:26:20.787Z,53.20
2018-04-28T12:28:48.275Z,52.10
2018-04-28T12:31:15.710Z,49.90
2018-04-28T12:33:43.237Z,50.80
2018-04-28T12:36:10.679Z,52.00
2018-04-28T12:38:38.128Z,50.60
2018-04-28T12:41:05.573Z,50.90
2018-04-28T12:43:33.278Z,49.80
2018-04-28T12:46:00.827Z,51.00
2018-04-28T12:48:28.275Z,52.30
2018-04-28T12:50:55.729Z,52.00
2018-04-28T12:53:24.203Z,52.90
2018-04-28T12:55:51.859Z,50.90
2018-04-28T12:58:21.305Z,51.70
2018-04-28T13:00:48.745Z,51.00
2018-04-28T13:03:16.162Z,51.70
2018-04-28T13:05:43.650Z,49.90
2018-04-28T13:08:11.182Z,49.30
2018-04-28T13:10:38.561Z,49.10
2018-04-28T13:13:06.026Z,49.40
2018-04-28T13:15:33.460Z,49.10
2018-04-28T13:18:01.133Z,50.60
2018-04-28T13:20:28.592Z,48.80
2018-04-28T13:22:56.090Z,50.10
2018-04-28T13:25:24.355Z,50.60
2018-04-28T13:27:55.066Z,50.70
2018-04-28T13:30:22.514Z,49.20
2018-04-28T13:32:49.950Z,51.30
2018-04-28T13:35:17.403Z,51.30
2018-04-28T13:37:45.316Z,49.70
2018-04-28T13:40:12.965Z,49.80
2018-04-28T13:42:40.491Z,49.80
2018-04-28T13:45:07.918Z,51.50
2018-04-28T13:47:35.559Z,49.80
2018-04-28T13:50:03.063Z,48.20
2018-04-28T13:52:30.776Z,47.60
2018-04-28T13:54:58.679Z,49.30
2018-04-28T13:57:26.918Z,50.40
2018-04-28T13:59:54.338Z,50.40
2018-04-28T14:02:21.888Z,48.80
2018-04-28T14:04:50.170Z,49.40
2018-04-28T14:07:18.415Z,49.20
2018-04-28T14:09:45.902Z,49.20
2018-04-28T14:12:13.293Z,49.30
2018-04-28T14:14:40.735Z,51.00
2018-04-28T14:17:08.188Z,50.00
2018-04-28T14:19:35.679Z,49.80
2018-04-28T14:22:03.106Z,50.40
2018-04-28T14:24:30.593Z,48.80
2018-04-28T14:26:58.363Z,48.80
2018-04-28T14:29:25.810Z,48.70
2018-04-28T14:31:53.307Z,50.50
2018-04-28T14:34:20.843Z,49.00
2018-04-28T14:36:48.269Z,49.60
2018-04-28T14:39:15.685Z,49.30
2018-04-28T14:41:44.005Z,52.30
2018-04-28T14:44:11.466Z,52.20
2018-04-28T14:46:38.909Z,52.30
2018-04-28T14:49:06.381Z,52.70
2018-04-28T14:51:33.870Z,52.60
2018-04-28T14:54:01.294Z,51.90
2018-04-28T14:56:28.960Z,52.20
2018-04-28T14:58:56.397Z,51.80
2018-04-28T15:01:23.894Z,51.00
2018-04-28T15:03:51.330Z,51.00
2018-04-28T15:06:18.767Z,50.50
2018-04-28T15:08:46.941Z,51.00
2018-04-28T15:11:14.386Z,51.00
2018-04-28T15:13:42.565Z,51.50
2018-04-28T15:16:10.023Z,51.40
2018-04-28T15:18:38.231Z,51.40
2018-04-28T15:21:05.698Z,51.40
2018-04-28T15:23:33.146Z,51.80
2018-04-28T15:26:00.720Z,51.10
2018-04-28T15:28:28.210Z,51.20
2018-04-28T15:30:55.629Z,52.30
2018-04-28T15:33:23.062Z,54.20
2018-04-28T15:35:50.499Z,52.70
2018-04-28T15:38:18.694Z,52.80
2018-04-28T15:40:46.134Z,52.70
2018-04-28T15:43:14.371Z,52.50
2018-04-28T15:45:41.813Z,52.50
2018-04-28T15:48:09.282Z,53.40
2018-04-28T15:50:36.751Z,52.80
2018-04-28T15:53:06.042Z,52.20
2018-04-28T15:55:33.492Z,52.10
2018-04-28T15:58:00.914Z,52.20
2018-04-28T16:00:28.374Z,52.50
2018-04-28T16:02:55.850Z,53.50
2018-04-28T16:05:23.282Z,53.50
2018-04-28T16:07:50.807Z,54.10
2018-04-28T16:10:18.255Z,54.70
2018-04-28T16:12:45.709Z,54.00
2018-04-28T16:15:13.358Z,54.50
2018-04-28T16:17:40.770Z,53.10
2018-04-28T16:20:08.264Z,54.20
2018-04-28T16:22:36.487Z,53.80
2018-04-28T16:25:04.270Z,53.70
2018-04-28T16:27:31.821Z,53.60
2018-04-28T16:29:59.211Z,54.70
2018-04-28T16:32:26.722Z,53.80
2018-04-28T16:34:54.944Z,54.20
2018-04-28T16:37:22.371Z,53.90
2018-04-28T16:39:51.443Z,54.50
2018-04-28T16:42:19.639Z,56.20
2018-04-28T16:47:15.768Z,56.30
2018-04-28T16:49:43.275Z,57.20
2018-04-28T16:52:15.449Z,57.00
2018-04-28T16:54:43.704Z,58.30
2018-04-28T16:57:12.054Z,58.20
2018-04-28T16:59:39.672Z,58.10
2018-04-28T17:02:09.261Z,58.90
2018-04-28T17:04:47.066Z,59.00
2018-04-28T17:07:16.109Z,58.90
2018-04-28T17:09:43.595Z,58.70
2018-04-28T17:12:11.960Z,58.70
2018-04-28T17:14:42.316Z,59.80
2018-04-28T17:17:10.121Z,60.70
2018-04-28T17:19:37.556Z,61.00
2018-04-28T17:22:06.986Z,60.10
2018-04-28T17:24:34.521Z,59.90
2018-04-28T17:27:07.898Z,61.50
2018-04-28T17:29:38.532Z,61.40
2018-04-28T17:32:06.918Z,62.00
2018-04-28T17:34:35.308Z,62.30
2018-04-28T17:37:09.592Z,62.10
2018-04-28T17:39:36.986Z,62.40
2018-04-28T17:42:10.463Z,63.70
2018-04-28T17:44:37.989Z,63.40
2018-04-28T17:47:05.783Z,64.60
2018-04-28T17:49:33.265Z,66.20
2018-04-28T17:52:01.545Z,65.90
2018-04-28T17:54:29.018Z,65.90
2018-04-28T17:56:56.496Z,66.90
2018-04-28T17:59:24.835Z,66.60
2018-04-28T18:01:54.017Z,67.20
2018-04-28T18:04:21.455Z,67.20
2018-04-28T18:06:50.942Z,67.20
2018-04-28T18:09:18.409Z,67.70
2018-04-28T18:11:48.887Z,66.60
2018-04-28T18:14:17.129Z,67.60
2018-04-28T18:16:44.608Z,67.60
2018-04-28T18:19:12.115Z,65.80
2018-04-28T18:21:41.499Z,66.90
2018-04-28T18:24:16.009Z,68.30
2018-04-28T18:26:44.273Z,68.10
2018-04-28T18:29:11.784Z,68.00
2018-04-28T18:31:40.187Z,67.20
2018-04-28T18:34:07.691Z,68.90
2018-04-28T18:36:35.942Z,68.40
2018-04-28T18:39:05.963Z,70.10
2018-04-28T18:41:35.216Z,69.00
2018-04-28T18:44:02.830Z,69.10
2018-04-28T18:46:32.216Z,69.70
2018-04-28T18:48:59.656Z,69.20
2018-04-28T18:51:27.129Z,69.90
2018-04-28T18:53:54.695Z,71.40
2018-04-28T18:56:24.186Z,72.50
2018-04-28T18:58:52.750Z,78.80
2018-04-28T19:01:22.222Z,80.60
2018-04-28T19:03:51.684Z,81.80
2018-04-28T19:06:20.217Z,83.50
2018-04-28T19:08:47.791Z,83.10
2018-04-28T19:11:16.431Z,84.20
2018-04-28T19:13:44.697Z,82.80
2018-04-28T19:16:12.306Z,82.60
2018-04-28T19:18:39.829Z,82.60
2018-04-28T19:21:08.294Z,82.90
2018-04-28T19:23:36.615Z,82.10
2018-04-28T19:26:04.144Z,82.00
2018-04-28T19:28:32.648Z,84.80
2018-04-28T19:31:00.244Z,84.40
2018-04-28T19:33:29.365Z,85.90
2018-04-28T19:35:58.616Z,86.40
2018-04-28T19:38:27.171Z,86.40
2018-04-28T19:40:55.037Z,85.10
2018-04-28T19:43:35.903Z,84.30
2018-04-28T19:46:04.337Z,86.80
2018-04-28T19:48:31.887Z,86.70
2018-04-28T19:51:00.185Z,87.40
2018-04-28T19:53:27.691Z,85.30
2018-04-28T19:55:55.207Z,83.40
2018-04-28T19:58:23.717Z,82.90
2018-04-28T20:00:56.386Z,84.00
2018-04-28T20:03:27.764Z,84.10
2018-04-28T20:05:56.924Z,85.20
2018-04-28T20:08:25.388Z,85.00
2018-04-28T20:10:55.817Z,86.60
2018-04-28T20:13:25.379Z,83.40
2018-04-28T20:15:53.820Z,83.20
2018-04-28T20:18:29.764Z,81.10
2018-04-28T20:20:59.603Z,82.30
2018-04-28T20:23:38.826Z,82.30
2018-04-28T20:26:08.330Z,84.50
2018-04-28T20:28:37.811Z,83.40
2018-04-28T20:31:15.050Z,82.40
2018-04-28T20:33:49.852Z,81.70
2018-04-28T20:36:17.423Z,82.60
2018-04-28T20:38:45.013Z,83.30
2018-04-28T20:41:13.773Z,81.30
2018-04-28T20:43:42.257Z,81.90
2018-04-28T20:46:11.687Z,81.80
2018-04-28T20:48:39.536Z,85.20
2018-04-28T20:51:10.509Z,87.60
2018-04-28T20:53:40.049Z,84.20
2018-04-28T20:56:07.576Z,80.40
2018-04-28T20:58:35.087Z,82.60
2018-04-28T21:01:03.454Z,84.20
2018-04-28T21:03:34.722Z,84.20
2018-04-28T21:06:03.984Z,82.90
2018-04-28T21:08:31.486Z,82.80
2018-04-28T21:10:59.784Z,87.20
2018-04-28T21:13:29.522Z,87.10
2018-04-28T21:16:00.135Z,87.60
2018-04-28T21:18:28.595Z,87.80
2018-04-28T21:20:57.053Z,86.80
2018-04-28T21:23:29.244Z,88.40
2018-04-28T21:25:57.123Z,88.60
2018-04-28T21:28:25.979Z,88.90
2018-04-28T21:30:55.310Z,90.00
2018-04-28T21:33:23.747Z,90.00
2018-04-28T21:35:53.296Z,90.30
2018-04-28T21:38:23.525Z,90.10
2018-04-28T21:40:56.743Z,90.10
2018-04-28T21:43:27.583Z,88.90
2018-04-28T21:46:00.773Z,90.20
2018-04-28T21:48:30.006Z,86.10
2018-04-28T21:51:01.446Z,86.10
2018-04-28T21:53:29.175Z,87.10
2018-04-28T21:55:56.673Z,85.70
2018-04-28T21:58:25.130Z,85.70
2018-04-28T22:00:53.568Z,86.10
2018-04-28T22:03:21.109Z,84.00
2018-04-28T22:05:55.304Z,89.20
2018-04-28T22:08:26.037Z,89.20
2018-04-28T22:10:53.525Z,88.80
2018-04-28T22:13:22.683Z,89.80
2018-04-28T22:15:54.243Z,89.80
2018-04-28T22:18:27.599Z,90.00
2018-04-28T22:20:55.126Z,90.00
2018-04-28T22:23:23.404Z,89.90
2018-04-28T22:25:51.931Z,89.80
2018-04-28T22:28:20.133Z,89.80
2018-04-28T22:30:47.963Z,88.70
2018-04-28T22:33:16.571Z,85.80
2018-04-28T22:35:44.064Z,84.70
2018-04-28T22:38:18.162Z,85.40
2018-04-28T22:40:47.634Z,85.40
2018-04-28T22:43:16.116Z,85.00
2018-04-28T22:45:47.918Z,86.30
2018-04-28T22:48:27.902Z,86.00
2018-04-28T22:50:55.647Z,86.00
2018-04-28T22:53:25.188Z,86.30
2018-04-28T22:55:58.497Z,85.20
2018-04-28T22:58:31.676Z,84.90
2018-04-28T23:01:04.029Z,87.20
2018-04-28T23:03:32.482Z,88.60
2018-04-28T23:06:06.016Z,86.40
2018-04-28T23:08:34.251Z,86.40
2018-04-28T23:11:02.810Z,88.30
2018-04-28T23:13:30.296Z,84.50
2018-04-28T23:15:57.902Z,85.30
2018-04-28T23:18:25.748Z,85.80
2018-04-28T23:20:53.354Z,88.80
2018-04-28T23:23:24.797Z,89.20
2018-04-28T23:25:54.216Z,89.20
2018-04-28T23:28:25.570Z,89.80
2018-04-28T23:30:54.002Z,90.00
2018-04-28T23:33:23.152Z,90.20
2018-04-28T23:35:57.815Z,90.20
2018-04-28T23:38:27.092Z,90.30
2018-04-28T23:40:55.712Z,90.30
2018-04-28T23:43:24.972Z,90.30
2018-04-28T23:45:53.376Z,90.30
2018-04-28T23:48:22.661Z,85.50
2018-04-28T23:50:50.947Z,89.40
2018-04-28T23:53:20.156Z,90.20
2018-04-28T23:55:53.122Z,90.40
2018-04-28T23:58:31.641Z,90.40
